createdAt,value
2019-05-13T00:01:24.586Z,91.60
2019-05-13T00:05:29.658Z,91.60
2019-05-13T00:09:34.394Z,91.80
2019-05-13T00:13:39.347Z,91.40
2019-05-13T00:17:44.797Z,91.50
2019-05-13T00:21:49.548Z,91.60
2019-05-13T00:25:54.667Z,91.60
2019-05-13T00:29:59.583Z,91.70
2019-05-13T00:34:04.501Z,91.40
2019-05-13T00:38:10.401Z,91.20
2019-05-13T00:42:15.220Z,91.20
2019-05-13T00:46:20.258Z,91.40
2019-05-13T00:50:26.155Z,91.30
2019-05-13T00:54:31.141Z,91.20
2019-05-13T00:58:35.874Z,90.80
2019-05-13T01:02:40.600Z,91.10
2019-05-13T01:06:45.583Z,91.40
2019-05-13T01:10:50.317Z,91.40
2019-05-13T01:14:55.267Z,91.40
2019-05-13T01:19:00.113Z,91.10
2019-05-13T01:23:05.062Z,91.10
2019-05-13T01:27:10.072Z,91.10
2019-05-13T01:31:14.874Z,90.90
2019-05-13T01:35:19.943Z,91.10
2019-05-13T01:39:24.640Z,91.50
2019-05-13T01:43:29.497Z,92.00
2019-05-13T01:47:34.570Z,92.00
2019-05-13T01:51:39.429Z,92.60
2019-05-13T01:55:44.548Z,92.90
2019-05-13T01:59:49.437Z,93.00
2019-05-13T02:03:54.592Z,92.90
2019-05-13T02:08:00.676Z,92.50
2019-05-13T02:12:05.975Z,92.10
2019-05-13T02:16:11.086Z,92.20
2019-05-13T02:20:16.024Z,92.70
2019-05-13T02:24:21.002Z,93.10
2019-05-13T02:28:25.805Z,93.00
2019-05-13T02:32:32.864Z,93.00
2019-05-13T02:36:37.375Z,93.00
2019-05-13T02:40:43.267Z,92.80
2019-05-13T02:44:48.654Z,92.40
2019-05-13T02:48:54.479Z,92.10
2019-05-13T02:53:02.099Z,91.90
2019-05-13T02:57:05.879Z,91.70
2019-05-13T03:01:12.617Z,91.40
2019-05-13T03:05:18.265Z,91.30
2019-05-13T03:09:23.224Z,91.90
2019-05-13T03:13:28.267Z,91.90
2019-05-13T03:17:43.237Z,92.00
2019-05-13T03:21:47.665Z,91.90
2019-05-13T03:25:53.800Z,91.80
2019-05-13T03:29:58.904Z,92.10
2019-05-13T03:34:06.493Z,92.30
2019-05-13T03:38:12.750Z,92.10
2019-05-13T03:42:22.441Z,92.10
2019-05-13T03:46:29.039Z,92.20
2019-05-13T03:50:34.792Z,91.60
2019-05-13T03:54:43.609Z,91.60
2019-05-13T03:58:48.509Z,91.50
2019-05-13T04:02:54.029Z,92.40
2019-05-13T04:07:02.297Z,92.40
2019-05-13T04:11:05.642Z,92.40
2019-05-13T04:15:12.620Z,92.10
2019-05-13T04:19:17.739Z,91.40
2019-05-13T04:23:23.591Z,91.10
2019-05-13T04:27:32.368Z,91.50
2019-05-13T04:31:35.528Z,91.00
2019-05-13T04:35:42.559Z,90.40
2019-05-13T04:39:51.743Z,90.70
2019-05-13T04:43:54.483Z,90.80
2019-05-13T04:47:59.369Z,90.70
2019-05-13T04:52:04.284Z,91.40
2019-05-13T04:56:13.274Z,91.10
2019-05-13T05:00:23.358Z,90.90
2019-05-13T05:04:36.241Z,90.40
2019-05-13T05:09:07.850Z,90.00
2019-05-13T05:13:47.178Z,90.10
2019-05-13T05:18:22.324Z,90.00
2019-05-13T05:23:11.159Z,90.50
2019-05-13T05:27:51.435Z,89.50
2019-05-13T05:32:31.858Z,90.00
2019-05-13T05:37:31.143Z,89.10
2019-05-13T05:41:36.992Z,89.40
2019-05-13T05:45:41.881Z,90.10
2019-05-13T05:49:47.885Z,90.00
2019-05-13T05:53:53.859Z,87.00
2019-05-13T05:58:01.553Z,85.80
2019-05-13T06:02:12.132Z,87.60
2019-05-13T06:06:17.531Z,84.70
2019-05-13T06:10:22.662Z,86.20
2019-05-13T06:14:27.905Z,82.60
2019-05-13T06:18:33.393Z,84.50
2019-05-13T06:22:38.324Z,84.70
2019-05-13T06:26:43.238Z,84.40
2019-05-13T06:30:48.549Z,83.10
2019-05-13T06:34:53.449Z,86.20
2019-05-13T06:38:58.323Z,85.20
2019-05-13T06:43:03.504Z,84.10
2019-05-13T06:47:08.345Z,80.60
2019-05-13T06:51:13.185Z,81.80
2019-05-13T06:55:18.323Z,80.80
2019-05-13T06:59:23.151Z,79.90
2019-05-13T07:03:28.026Z,77.60
2019-05-13T07:07:32.867Z,76.80
2019-05-13T07:11:37.714Z,76.60
2019-05-13T07:15:42.636Z,77.10
2019-05-13T07:19:47.498Z,77.20
2019-05-13T07:23:54.864Z,76.00
2019-05-13T07:27:58.789Z,77.30
2019-05-13T07:32:03.626Z,76.60
2019-05-13T07:36:08.507Z,75.70
2019-05-13T07:40:13.695Z,74.90
2019-05-13T07:44:18.569Z,74.60
2019-05-13T07:48:27.522Z,76.60
2019-05-13T07:52:31.925Z,76.20
2019-05-13T07:56:36.263Z,76.30
2019-05-13T08:00:41.982Z,76.20
2019-05-13T08:04:49.414Z,74.80
2019-05-13T08:08:53.572Z,74.30
2019-05-13T08:12:58.400Z,74.00
2019-05-13T08:17:03.242Z,70.50
2019-05-13T08:21:08.501Z,71.20
2019-05-13T08:25:13.999Z,71.70
2019-05-13T08:29:18.754Z,71.20
2019-05-13T08:33:23.693Z,70.80
2019-05-13T08:37:28.674Z,69.80
2019-05-13T08:41:34.487Z,69.00
2019-05-13T08:45:41.891Z,69.00
2019-05-13T08:49:45.969Z,68.10
2019-05-13T08:53:51.655Z,69.30
2019-05-13T08:57:56.783Z,69.00
2019-05-13T09:02:03.147Z,69.10
2019-05-13T09:06:08.364Z,68.60
2019-05-13T09:10:13.696Z,68.90
2019-05-13T09:14:18.599Z,68.60
2019-05-13T09:18:24.611Z,67.60
2019-05-13T09:22:31.746Z,66.50
2019-05-13T09:26:36.362Z,66.00
2019-05-13T09:30:42.375Z,66.50
2019-05-13T09:34:47.630Z,64.00
2019-05-13T09:38:52.719Z,64.00
2019-05-13T09:42:57.872Z,61.00
2019-05-13T09:47:02.987Z,58.60
2019-05-13T09:51:09.045Z,55.90
2019-05-13T09:55:26.370Z,56.60
2019-05-13T09:59:22.146Z,57.00
2019-05-13T10:03:29.626Z,57.10
2019-05-13T10:07:33.835Z,54.10
2019-05-13T10:11:38.576Z,55.50
2019-05-13T10:15:47.975Z,55.80
2019-05-13T10:19:52.094Z,53.10
2019-05-13T10:23:58.798Z,52.10
2019-05-13T10:28:03.504Z,53.30
2019-05-13T10:32:08.613Z,54.70
2019-05-13T10:36:13.654Z,53.60
2019-05-13T10:40:18.610Z,54.30
2019-05-13T10:44:23.372Z,56.80
2019-05-13T10:48:28.372Z,56.80
2019-05-13T10:52:33.172Z,55.70
2019-05-13T10:56:39.061Z,55.20
2019-05-13T11:00:47.258Z,55.30
2019-05-13T11:04:52.733Z,54.70
2019-05-13T11:08:57.805Z,54.50
2019-05-13T11:13:06.061Z,53.00
2019-05-13T11:17:09.194Z,52.80
2019-05-13T11:21:14.039Z,53.90
2019-05-13T11:25:21.494Z,52.90
2019-05-13T11:29:25.625Z,52.80
2019-05-13T11:33:31.828Z,52.60
2019-05-13T11:37:36.854Z,54.50
2019-05-13T11:41:42.665Z,52.70
2019-05-13T11:45:47.706Z,53.40
2019-05-13T11:49:52.989Z,54.10
2019-05-13T11:53:57.816Z,50.90
2019-05-13T11:58:03.071Z,50.10
2019-05-13T12:02:08.176Z,49.70
2019-05-13T12:06:14.652Z,47.90
2019-05-13T12:10:22.620Z,48.40
2019-05-13T12:14:42.844Z,47.90
2019-05-13T12:18:32.649Z,48.90
2019-05-13T12:22:37.467Z,49.10
2019-05-13T12:26:43.455Z,48.00
2019-05-13T12:30:52.730Z,47.80
2019-05-13T12:34:56.341Z,45.70
2019-05-13T12:39:01.194Z,45.20
2019-05-13T12:43:07.636Z,45.10
2019-05-13T12:47:12.867Z,46.10
2019-05-13T12:51:17.731Z,45.30
2019-05-13T12:55:23.425Z,43.00
2019-05-13T12:59:28.245Z,44.50
2019-05-13T13:03:33.030Z,42.00
2019-05-13T13:07:42.407Z,40.30
2019-05-13T13:11:44.662Z,40.00
2019-05-13T13:15:52.413Z,40.90
2019-05-13T13:20:04.691Z,39.90
2019-05-13T13:24:04.421Z,41.10
2019-05-13T13:28:12.147Z,42.20
2019-05-13T13:32:15.597Z,41.50
2019-05-13T13:36:23.970Z,40.20
2019-05-13T13:40:29.738Z,38.10
2019-05-13T13:48:43.804Z,38.00
2019-05-13T13:52:47.120Z,35.90
2019-05-13T13:56:55.772Z,35.20
2019-05-13T14:01:07.274Z,33.10
2019-05-13T14:05:05.975Z,32.50
2019-05-13T14:06:58.777Z,37.80
2019-05-13T14:09:11.998Z,32.20
2019-05-13T14:13:17.181Z,31.80
2019-05-13T14:17:22.116Z,33.50
2019-05-13T14:21:27.012Z,34.40
2019-05-13T14:25:32.599Z,35.80
2019-05-13T14:29:41.844Z,36.60
2019-05-13T14:33:44.224Z,37.40
2019-05-13T14:37:51.693Z,36.30
2019-05-13T14:41:55.476Z,36.00
2019-05-13T14:46:02.265Z,34.90
2019-05-13T14:50:07.375Z,33.30
2019-05-13T14:54:12.588Z,30.80
2019-05-13T14:58:17.407Z,29.70
2019-05-13T15:02:23.353Z,28.50
2019-05-13T15:06:28.103Z,28.00
2019-05-13T15:10:34.272Z,28.30
2019-05-13T15:14:40.688Z,29.20
2019-05-13T15:18:45.753Z,29.50
2019-05-13T15:22:51.945Z,30.00
2019-05-13T15:26:57.087Z,30.60
2019-05-13T15:31:01.815Z,29.30
2019-05-13T15:35:10.170Z,26.60
2019-05-13T15:39:13.925Z,25.50
2019-05-13T15:43:18.857Z,24.40
2019-05-13T15:47:26.794Z,23.40
2019-05-13T15:51:31.601Z,22.60
2019-05-13T15:55:36.559Z,23.20
2019-05-13T15:59:41.613Z,22.60
2019-05-13T16:03:48.001Z,23.20
2019-05-13T16:07:52.932Z,23.50
2019-05-13T16:11:57.948Z,23.00
2019-05-13T16:16:02.841Z,22.00
2019-05-13T16:20:08.541Z,20.60
2019-05-13T16:24:13.526Z,20.30
2019-05-13T16:28:18.340Z,19.20
2019-05-13T16:32:23.847Z,17.50
2019-05-13T16:36:28.688Z,17.60
2019-05-13T16:40:36.663Z,17.50
2019-05-13T16:44:42.991Z,17.80
2019-05-13T16:48:49.165Z,18.60
2019-05-13T16:52:53.896Z,18.90
2019-05-13T16:57:01.058Z,20.30
2019-05-13T17:01:05.274Z,21.80
2019-05-13T17:05:12.005Z,23.30
2019-05-13T17:09:17.169Z,23.20
2019-05-13T17:13:22.213Z,24.40
2019-05-13T17:17:28.252Z,26.80
2019-05-13T17:21:35.971Z,27.40
2019-05-13T17:25:39.539Z,28.30
2019-05-13T17:29:44.340Z,28.90
2019-05-13T17:33:51.825Z,28.40
2019-05-13T17:37:56.390Z,29.20
2019-05-13T17:42:01.623Z,29.90
2019-05-13T17:46:06.853Z,31.20
2019-05-13T17:50:12.242Z,32.40
2019-05-13T17:54:17.207Z,31.30
2019-05-13T17:58:22.249Z,34.60
2019-05-13T18:02:27.186Z,35.70
2019-05-13T18:06:32.309Z,34.70
2019-05-13T18:10:37.224Z,35.60
2019-05-13T18:14:42.426Z,35.50
2019-05-13T18:18:47.896Z,38.00
2019-05-13T18:22:52.754Z,38.20
2019-05-13T18:26:57.749Z,38.90
2019-05-13T18:31:02.770Z,40.20
2019-05-13T18:35:08.223Z,40.80
2019-05-13T18:39:13.108Z,40.70
2019-05-13T18:43:17.942Z,41.60
2019-05-13T18:47:23.418Z,42.10
2019-05-13T18:51:28.636Z,42.80
2019-05-13T18:55:33.756Z,45.50
2019-05-13T18:59:38.652Z,44.00
2019-05-13T19:03:43.740Z,44.70
2019-05-13T19:07:51.082Z,44.30
2019-05-13T19:11:55.182Z,46.30
2019-05-13T19:16:02.241Z,47.00
2019-05-13T19:20:07.956Z,48.40
2019-05-13T19:24:13.540Z,48.50
2019-05-13T19:28:18.651Z,49.20
2019-05-13T19:32:23.473Z,50.00
2019-05-13T19:36:28.608Z,51.00
2019-05-13T19:40:33.536Z,51.90
2019-05-13T19:44:38.599Z,51.80
2019-05-13T19:48:43.408Z,52.20
2019-05-13T19:52:48.284Z,53.20
2019-05-13T19:56:53.540Z,52.60
2019-05-13T20:00:58.374Z,53.30
2019-05-13T20:05:03.677Z,53.90
2019-05-13T20:09:09.859Z,54.60
2019-05-13T20:13:14.791Z,55.50
2019-05-13T20:17:19.680Z,56.50
2019-05-13T20:21:24.580Z,57.00
2019-05-13T20:25:31.229Z,56.10
2019-05-13T20:29:36.362Z,57.90
2019-05-13T20:33:42.984Z,58.00
2019-05-13T20:37:47.699Z,59.80
2019-05-13T20:41:55.720Z,60.20
2019-05-13T20:46:01.720Z,59.90
2019-05-13T20:50:06.388Z,57.70
2019-05-13T20:54:11.499Z,58.50
2019-05-13T20:58:16.596Z,59.10
2019-05-13T21:02:22.183Z,59.60
2019-05-13T21:06:27.707Z,59.90
2019-05-13T21:10:32.531Z,61.20
2019-05-13T21:14:38.593Z,62.00
2019-05-13T21:18:43.753Z,62.50
2019-05-13T21:22:48.640Z,62.40
2019-05-13T21:26:54.991Z,62.30
2019-05-13T21:31:02.112Z,60.90
2019-05-13T21:35:08.501Z,58.30
2019-05-13T21:39:13.473Z,58.10
2019-05-13T21:43:21.624Z,58.40
2019-05-13T21:47:26.765Z,58.80
2019-05-13T21:51:31.603Z,58.30
2019-05-13T21:55:36.553Z,58.00
2019-05-13T21:59:41.840Z,56.40
2019-05-13T22:03:48.049Z,55.40
2019-05-13T22:07:52.963Z,54.50
2019-05-13T22:11:57.835Z,54.40
2019-05-13T22:16:02.877Z,53.60
2019-05-13T22:20:07.919Z,53.60
2019-05-13T22:24:12.953Z,53.80
2019-05-13T22:28:17.937Z,53.70
2019-05-13T22:32:22.740Z,54.10
2019-05-13T22:36:28.536Z,55.50
2019-05-13T22:40:33.414Z,55.70
2019-05-13T22:44:38.612Z,55.80
2019-05-13T22:48:43.373Z,57.00
2019-05-13T22:52:48.190Z,56.50
2019-05-13T22:56:53.139Z,58.40
2019-05-13T23:00:58.089Z,58.60
2019-05-13T23:05:03.203Z,59.10
2019-05-13T23:09:08.464Z,59.80
2019-05-13T23:13:13.228Z,60.20
2019-05-13T23:17:18.453Z,60.10
2019-05-13T23:21:23.229Z,59.60
2019-05-13T23:25:28.229Z,61.40
2019-05-13T23:29:34.364Z,58.10
2019-05-13T23:33:41.603Z,60.90
2019-05-13T23:37:46.097Z,61.80
2019-05-13T23:41:52.146Z,61.60
2019-05-13T23:45:57.353Z,61.50
2019-05-13T23:50:02.204Z,64.20
2019-05-13T23:54:07.341Z,65.00
2019-05-13T23:58:12.325Z,64.70
